Terminal Aerodrome Forecast
Issued by NWS

Home | Current Version | Previous Version | Text Only | Print | Product List | Glossary On
Versions: 1 2 3 4 5 6 7 8 9 10 11 12 13 14 15 16 17 18 19 20 21 22 23 24 25 26 27 28 29
000
FTUS45 KFGZ 182300
TAFSEZ
TAF
KSEZ 182333Z 1900/1924 05006KT P6SM SCT060 BKN080
      TEMPO 1900/1902 SCT080
     FM190300 05009KT P6SM FEW080
     FM191500 VRB05KT P6SM SKC
     FM192000 20006KT P6SM FEW100=

USA.gov is the U.S. government's official web portal to all federal, state and local government web resources and services.